SPGWE EPKT-EPKK
Flight info
| Callsign | SPGWE |
|---|---|
| Flight time | 0h 46m |
| Altitude | 2000 |
| Route | KAK |
| Aircraft | C182/L-SDGRY/S |
Departure
| Time | 2026-05-06 16:40 |
|---|---|
| Airport | Katowice Wojciech Korfanty International Airport (EPKT) |
Arrival
| Time | 2026-05-06 17:27 |
|---|---|
| Airport | Kraków John Paul II International Airport (EPKK) |
| Time | Latitude | Longitude | Altitude | Speed | Heading |
|---|---|---|---|---|---|
| 2026-05-06 16:27 | 50.47343 | 19.10434 | 1006 ft | 0 kts | 51° |
| 2026-05-06 16:29 | 50.47344 | 19.10436 | 1006 ft | 0 kts | 51° |
| 2026-05-06 16:31 | 50.47306 | 19.10391 | 1007 ft | 0 kts | 51° |
| 2026-05-06 16:34 | 50.47322 | 19.10387 | 1007 ft | 2 kts | 311° |
| 2026-05-06 16:34 | 50.47340 | 19.10353 | 1007 ft | 2 kts | 327° |
| 2026-05-06 16:34 | 50.47360 | 19.10330 | 1006 ft | 7 kts | 298° |
| 2026-05-06 16:34 | 50.47368 | 19.10307 | 1006 ft | 2 kts | 324° |
| 2026-05-06 16:35 | 50.47375 | 19.10306 | 1005 ft | 0 kts | 18° |
| 2026-05-06 16:35 | 50.47379 | 19.10310 | 1005 ft | 0 kts | 40° |
| 2026-05-06 16:35 | 50.47379 | 19.10309 | 1005 ft | 0 kts | 40° |
| 2026-05-06 16:36 | 50.47387 | 19.10327 | 1006 ft | 1 kts | 51° |
| 2026-05-06 16:36 | 50.47407 | 19.10368 | 1005 ft | 9 kts | 52° |
| 2026-05-06 16:36 | 50.47440 | 19.10428 | 1005 ft | 5 kts | 40° |
| 2026-05-06 16:36 | 50.47474 | 19.10447 | 1004 ft | 10 kts | 360° |
| 2026-05-06 16:37 | 50.47546 | 19.10448 | 1003 ft | 7 kts | 1° |
| 2026-05-06 16:37 | 50.47580 | 19.10431 | 1002 ft | 3 kts | 318° |
| 2026-05-06 16:37 | 50.47595 | 19.10372 | 1002 ft | 4 kts | 268° |
| 2026-05-06 16:37 | 50.47595 | 19.10371 | 1002 ft | 0 kts | 266° |
| 2026-05-06 16:39 | 50.47594 | 19.10301 | 1001 ft | 26 kts | 265° |
| 2026-05-06 16:39 | 50.47599 | 19.09795 | 990 ft | 64 kts | 268° |
| 2026-05-06 16:39 | 50.47613 | 19.09127 | 1170 ft | 58 kts | 259° |
| 2026-05-06 16:39 | 50.47626 | 19.08534 | 1352 ft | 52 kts | 259° |
| 2026-05-06 16:40 | 50.47606 | 19.08010 | 1505 ft | 49 kts | 248° |
| 2026-05-06 16:40 | 50.47527 | 19.07516 | 1658 ft | 44 kts | 230° |
| 2026-05-06 16:40 | 50.47285 | 19.07170 | 1774 ft | 51 kts | 197° |
| 2026-05-06 16:40 | 50.46936 | 19.07374 | 1854 ft | 79 kts | 126° |
| 2026-05-06 16:41 | 50.46691 | 19.08124 | 1983 ft | 81 kts | 129° |
| 2026-05-06 16:41 | 50.46419 | 19.08950 | 2104 ft | 81 kts | 126° |
| 2026-05-06 16:41 | 50.46168 | 19.09854 | 2089 ft | 103 kts | 121° |
| 2026-05-06 16:41 | 50.45778 | 19.10854 | 2072 ft | 108 kts | 141° |
| 2026-05-06 16:42 | 50.45293 | 19.11595 | 2340 ft | 86 kts | 144° |
| 2026-05-06 16:42 | 50.44959 | 19.12335 | 2468 ft | 95 kts | 128° |
| 2026-05-06 16:42 | 50.44627 | 19.13342 | 2452 ft | 109 kts | 124° |
| 2026-05-06 16:42 | 50.44274 | 19.14411 | 2465 ft | 112 kts | 125° |
| 2026-05-06 16:43 | 50.43911 | 19.15536 | 2374 ft | 118 kts | 124° |
| 2026-05-06 16:43 | 50.43549 | 19.16735 | 2233 ft | 126 kts | 123° |
| 2026-05-06 16:43 | 50.43147 | 19.17977 | 2055 ft | 129 kts | 125° |
| 2026-05-06 16:43 | 50.42735 | 19.19201 | 2039 ft | 121 kts | 124° |
| 2026-05-06 16:44 | 50.42366 | 19.20326 | 2075 ft | 109 kts | 126° |
| 2026-05-06 16:44 | 50.42023 | 19.21304 | 2027 ft | 97 kts | 137° |
| 2026-05-06 16:44 | 50.41636 | 19.22125 | 1981 ft | 91 kts | 140° |
| 2026-05-06 16:44 | 50.41233 | 19.22857 | 1941 ft | 87 kts | 142° |
| 2026-05-06 16:45 | 50.40840 | 19.23561 | 2014 ft | 88 kts | 136° |
| 2026-05-06 16:45 | 50.40442 | 19.24400 | 2002 ft | 101 kts | 136° |
| 2026-05-06 16:45 | 50.40008 | 19.25312 | 1983 ft | 110 kts | 134° |
| 2026-05-06 16:45 | 50.39505 | 19.26246 | 1946 ft | 112 kts | 141° |
| 2026-05-06 16:46 | 50.38962 | 19.27123 | 2001 ft | 107 kts | 142° |
| 2026-05-06 16:46 | 50.38432 | 19.27982 | 1975 ft | 110 kts | 142° |
| 2026-05-06 16:46 | 50.37897 | 19.28836 | 1984 ft | 109 kts | 142° |
| 2026-05-06 16:46 | 50.37351 | 19.29666 | 1991 ft | 109 kts | 145° |
| 2026-05-06 16:47 | 50.36780 | 19.30503 | 1936 ft | 112 kts | 145° |
| 2026-05-06 16:47 | 50.36212 | 19.31311 | 1978 ft | 108 kts | 145° |
| 2026-05-06 16:47 | 50.35638 | 19.32036 | 2020 ft | 105 kts | 149° |
| 2026-05-06 16:47 | 50.35068 | 19.32783 | 2023 ft | 107 kts | 145° |
| 2026-05-06 16:48 | 50.34518 | 19.33601 | 1983 ft | 111 kts | 144° |
| 2026-05-06 16:48 | 50.33968 | 19.34462 | 1981 ft | 111 kts | 142° |
| 2026-05-06 16:48 | 50.33456 | 19.35340 | 2030 ft | 109 kts | 137° |
| 2026-05-06 16:48 | 50.32953 | 19.36271 | 2022 ft | 111 kts | 138° |
| 2026-05-06 16:49 | 50.32516 | 19.37158 | 2152 ft | 102 kts | 134° |
| 2026-05-06 16:49 | 50.32028 | 19.38023 | 2132 ft | 106 kts | 142° |
| 2026-05-06 16:49 | 50.31469 | 19.38856 | 2002 ft | 117 kts | 143° |
| 2026-05-06 16:49 | 50.30882 | 19.39739 | 1909 ft | 118 kts | 143° |
| 2026-05-06 16:50 | 50.30305 | 19.40561 | 1897 ft | 108 kts | 145° |
| 2026-05-06 16:50 | 50.29741 | 19.41313 | 1853 ft | 103 kts | 149° |
| 2026-05-06 16:50 | 50.29182 | 19.41928 | 1910 ft | 90 kts | 158° |
| 2026-05-06 16:50 | 50.28835 | 19.42248 | 1933 ft | 87 kts | 155° |
| 2026-05-06 16:51 | 50.28087 | 19.42802 | 1878 ft | 90 kts | 161° |
| 2026-05-06 16:51 | 50.27554 | 19.43328 | 1848 ft | 94 kts | 145° |
| 2026-05-06 16:51 | 50.27051 | 19.43989 | 1822 ft | 90 kts | 147° |
| 2026-05-06 16:51 | 50.26583 | 19.44572 | 1894 ft | 79 kts | 149° |
| 2026-05-06 16:52 | 50.26465 | 19.45340 | 1951 ft | 98 kts | 64° |
| 2026-05-06 16:52 | 50.27134 | 19.45696 | 1974 ft | 100 kts | 336° |
| 2026-05-06 16:52 | 50.27515 | 19.44996 | 1977 ft | 85 kts | 259° |
| 2026-05-06 16:52 | 50.27150 | 19.44624 | 1938 ft | 80 kts | 162° |
| 2026-05-06 16:53 | 50.26677 | 19.45176 | 1882 ft | 89 kts | 150° |
| 2026-05-06 16:53 | 50.26163 | 19.45766 | 1804 ft | 91 kts | 151° |
| 2026-05-06 16:53 | 50.25703 | 19.46348 | 1860 ft | 85 kts | 144° |
| 2026-05-06 16:53 | 50.25281 | 19.47028 | 1895 ft | 82 kts | 142° |
| 2026-05-06 16:54 | 50.24886 | 19.47588 | 2003 ft | 72 kts | 149° |
| 2026-05-06 16:54 | 50.24481 | 19.48103 | 1995 ft | 79 kts | 144° |
| 2026-05-06 16:54 | 50.24048 | 19.48653 | 2088 ft | 82 kts | 147° |
| 2026-05-06 16:54 | 50.23594 | 19.49262 | 2196 ft | 87 kts | 146° |
| 2026-05-06 16:55 | 50.23154 | 19.49923 | 2322 ft | 88 kts | 142° |
| 2026-05-06 16:55 | 50.22708 | 19.50624 | 2372 ft | 94 kts | 140° |
| 2026-05-06 16:55 | 50.22252 | 19.51365 | 2484 ft | 95 kts | 139° |
| 2026-05-06 16:55 | 50.21780 | 19.52154 | 2483 ft | 103 kts | 140° |
| 2026-05-06 16:56 | 50.21291 | 19.52931 | 2596 ft | 98 kts | 140° |
| 2026-05-06 16:56 | 50.20777 | 19.53697 | 2544 ft | 108 kts | 143° |
| 2026-05-06 16:56 | 50.20176 | 19.54505 | 2336 ft | 120 kts | 144° |
| 2026-05-06 16:56 | 50.19539 | 19.55240 | 2237 ft | 105 kts | 150° |
| 2026-05-06 16:57 | 50.18977 | 19.55870 | 2185 ft | 98 kts | 151° |
| 2026-05-06 16:57 | 50.18424 | 19.56428 | 2193 ft | 90 kts | 151° |
| 2026-05-06 16:57 | 50.17887 | 19.56941 | 2087 ft | 97 kts | 155° |
| 2026-05-06 16:57 | 50.17311 | 19.57496 | 2037 ft | 93 kts | 140° |
| 2026-05-06 16:58 | 50.17403 | 19.58419 | 2123 ft | 107 kts | 47° |
| 2026-05-06 16:58 | 50.18080 | 19.58773 | 2183 ft | 104 kts | 344° |
| 2026-05-06 16:58 | 50.18549 | 19.58096 | 2257 ft | 89 kts | 267° |
| 2026-05-06 16:58 | 50.18143 | 19.57594 | 2160 ft | 96 kts | 169° |
| 2026-05-06 16:59 | 50.17791 | 19.58310 | 2167 ft | 95 kts | 85° |
| 2026-05-06 16:59 | 50.18229 | 19.59117 | 2074 ft | 103 kts | 50° |
| 2026-05-06 16:59 | 50.18472 | 19.59975 | 2046 ft | 81 kts | 114° |
| 2026-05-06 16:59 | 50.18074 | 19.60109 | 1919 ft | 90 kts | 237° |
| 2026-05-06 17:00 | 50.18496 | 19.59333 | 1974 ft | 119 kts | 355° |
| 2026-05-06 17:00 | 50.19310 | 19.59281 | 2005 ft | 125 kts | 340° |
| 2026-05-06 17:00 | 50.20091 | 19.58862 | 2192 ft | 110 kts | 318° |
| 2026-05-06 17:00 | 50.20715 | 19.58010 | 2037 ft | 124 kts | 312° |
| 2026-05-06 17:01 | 50.21110 | 19.57045 | 2109 ft | 89 kts | 248° |
| 2026-05-06 17:01 | 50.20610 | 19.56658 | 2050 ft | 94 kts | 186° |
| 2026-05-06 17:01 | 50.19948 | 19.56508 | 2002 ft | 91 kts | 186° |
| 2026-05-06 17:01 | 50.19348 | 19.56471 | 1956 ft | 81 kts | 176° |
| 2026-05-06 17:02 | 50.18816 | 19.56688 | 1944 ft | 73 kts | 167° |
| 2026-05-06 17:02 | 50.18321 | 19.56837 | 1925 ft | 73 kts | 171° |
| 2026-05-06 17:02 | 50.17828 | 19.57093 | 1947 ft | 72 kts | 162° |
| 2026-05-06 17:02 | 50.17382 | 19.57384 | 1976 ft | 68 kts | 162° |
| 2026-05-06 17:03 | 50.16942 | 19.57665 | 1928 ft | 69 kts | 162° |
| 2026-05-06 17:03 | 50.16494 | 19.57945 | 1912 ft | 69 kts | 162° |
| 2026-05-06 17:03 | 50.16063 | 19.58278 | 1903 ft | 71 kts | 154° |
| 2026-05-06 17:03 | 50.15645 | 19.58714 | 1901 ft | 70 kts | 148° |
| 2026-05-06 17:04 | 50.15240 | 19.59145 | 1985 ft | 69 kts | 149° |
| 2026-05-06 17:04 | 50.14862 | 19.59676 | 1962 ft | 83 kts | 141° |
| 2026-05-06 17:04 | 50.14561 | 19.60514 | 2057 ft | 94 kts | 121° |
| 2026-05-06 17:04 | 50.14270 | 19.61490 | 1982 ft | 106 kts | 122° |
| 2026-05-06 17:05 | 50.13962 | 19.62550 | 1958 ft | 103 kts | 121° |
| 2026-05-06 17:05 | 50.13640 | 19.63505 | 1944 ft | 92 kts | 125° |
| 2026-05-06 17:05 | 50.13358 | 19.64340 | 1963 ft | 83 kts | 124° |
| 2026-05-06 17:05 | 50.13229 | 19.65300 | 1868 ft | 98 kts | 103° |
| 2026-05-06 17:06 | 50.13140 | 19.66361 | 1788 ft | 98 kts | 109° |
| 2026-05-06 17:06 | 50.13020 | 19.67389 | 1732 ft | 94 kts | 112° |
| 2026-05-06 17:06 | 50.12875 | 19.68380 | 1661 ft | 93 kts | 114° |
| 2026-05-06 17:06 | 50.12710 | 19.69356 | 1624 ft | 93 kts | 112° |
| 2026-05-06 17:07 | 50.12574 | 19.70345 | 1580 ft | 90 kts | 112° |
| 2026-05-06 17:07 | 50.12460 | 19.71234 | 1726 ft | 83 kts | 110° |
| 2026-05-06 17:07 | 50.12358 | 19.72200 | 1782 ft | 95 kts | 107° |
| 2026-05-06 17:07 | 50.12268 | 19.73306 | 1782 ft | 105 kts | 108° |
| 2026-05-06 17:08 | 50.12154 | 19.74413 | 1868 ft | 103 kts | 106° |
| 2026-05-06 17:08 | 50.12054 | 19.75491 | 1952 ft | 101 kts | 103° |
| 2026-05-06 17:08 | 50.12081 | 19.76579 | 2063 ft | 99 kts | 92° |
| 2026-05-06 17:08 | 50.12219 | 19.77667 | 2071 ft | 106 kts | 91° |
| 2026-05-06 17:09 | 50.12043 | 19.78700 | 1999 ft | 95 kts | 155° |
| 2026-05-06 17:09 | 50.11430 | 19.78837 | 2049 ft | 89 kts | 181° |
| 2026-05-06 17:09 | 50.10753 | 19.78768 | 1886 ft | 101 kts | 185° |
| 2026-05-06 17:09 | 50.10061 | 19.78613 | 1701 ft | 100 kts | 187° |
| 2026-05-06 17:10 | 50.09382 | 19.78584 | 1586 ft | 93 kts | 174° |
| 2026-05-06 17:10 | 50.08832 | 19.78837 | 1643 ft | 85 kts | 126° |
| 2026-05-06 17:10 | 50.08905 | 19.79815 | 1626 ft | 96 kts | 77° |
| 2026-05-06 17:10 | 50.09165 | 19.80776 | 1630 ft | 95 kts | 76° |
| 2026-05-06 17:11 | 50.09403 | 19.81728 | 1615 ft | 95 kts | 79° |
| 2026-05-06 17:11 | 50.09647 | 19.82671 | 1623 ft | 94 kts | 75° |
| 2026-05-06 17:11 | 50.09936 | 19.83579 | 1623 ft | 94 kts | 71° |
| 2026-05-06 17:11 | 50.10212 | 19.84497 | 1595 ft | 93 kts | 74° |
| 2026-05-06 17:12 | 50.10470 | 19.85381 | 1642 ft | 85 kts | 82° |
| 2026-05-06 17:12 | 50.10405 | 19.86209 | 1624 ft | 74 kts | 134° |
| 2026-05-06 17:12 | 50.09975 | 19.86345 | 1576 ft | 77 kts | 219° |
| 2026-05-06 17:12 | 50.09708 | 19.85667 | 1633 ft | 63 kts | 181° |
| 2026-05-06 17:13 | 50.09295 | 19.85624 | 1743 ft | 61 kts | 182° |
| 2026-05-06 17:13 | 50.08944 | 19.85199 | 1800 ft | 69 kts | 219° |
| 2026-05-06 17:13 | 50.08643 | 19.84549 | 1758 ft | 87 kts | 237° |
| 2026-05-06 17:13 | 50.08502 | 19.83511 | 1538 ft | 108 kts | 253° |
| 2026-05-06 17:14 | 50.08360 | 19.82412 | 1395 ft | 93 kts | 248° |
| 2026-05-06 17:14 | 50.08211 | 19.81482 | 1177 ft | 84 kts | 247° |
| 2026-05-06 17:14 | 50.08080 | 19.80612 | 955 ft | 79 kts | 248° |
| 2026-05-06 17:14 | 50.07956 | 19.79814 | 824 ft | 70 kts | 248° |
| 2026-05-06 17:15 | 50.07862 | 19.79129 | 821 ft | 63 kts | 255° |
| 2026-05-06 17:15 | 50.07799 | 19.78477 | 962 ft | 60 kts | 246° |
| 2026-05-06 17:15 | 50.07698 | 19.77831 | 1062 ft | 65 kts | 247° |
| 2026-05-06 17:15 | 50.07610 | 19.77047 | 1167 ft | 78 kts | 258° |
| 2026-05-06 17:16 | 50.07912 | 19.76388 | 1313 ft | 95 kts | 350° |
| 2026-05-06 17:16 | 50.08479 | 19.76714 | 1479 ft | 86 kts | 70° |
| 2026-05-06 17:16 | 50.08620 | 19.77609 | 1577 ft | 89 kts | 94° |
| 2026-05-06 17:16 | 50.08752 | 19.78633 | 1591 ft | 104 kts | 92° |
| 2026-05-06 17:17 | 50.08921 | 19.79798 | 1587 ft | 111 kts | 89° |
| 2026-05-06 17:17 | 50.09010 | 19.81004 | 1564 ft | 115 kts | 98° |
| 2026-05-06 17:17 | 50.09019 | 19.82223 | 1565 ft | 115 kts | 102° |
| 2026-05-06 17:17 | 50.08720 | 19.83122 | 1357 ft | 85 kts | 173° |
| 2026-05-06 17:18 | 50.08377 | 19.82614 | 1244 ft | 96 kts | 256° |
| 2026-05-06 17:18 | 50.08237 | 19.81599 | 1081 ft | 95 kts | 258° |
| 2026-05-06 17:18 | 50.08079 | 19.80526 | 933 ft | 112 kts | 256° |
| 2026-05-06 17:18 | 50.07907 | 19.79315 | 878 ft | 117 kts | 260° |
| 2026-05-06 17:19 | 50.07743 | 19.78102 | 920 ft | 113 kts | 260° |
| 2026-05-06 17:19 | 50.07576 | 19.76942 | 1000 ft | 107 kts | 260° |
| 2026-05-06 17:19 | 50.07506 | 19.75891 | 1279 ft | 91 kts | 263° |
| 2026-05-06 17:19 | 50.07469 | 19.74942 | 1463 ft | 88 kts | 263° |
| 2026-05-06 17:20 | 50.07777 | 19.74095 | 1427 ft | 121 kts | 345° |
| 2026-05-06 17:20 | 50.08356 | 19.74739 | 1558 ft | 100 kts | 73° |
| 2026-05-06 17:20 | 50.08556 | 19.75792 | 1680 ft | 99 kts | 80° |
| 2026-05-06 17:20 | 50.08821 | 19.76818 | 1798 ft | 104 kts | 71° |
| 2026-05-06 17:21 | 50.09011 | 19.77914 | 1832 ft | 108 kts | 90° |
| 2026-05-06 17:21 | 50.09069 | 19.79146 | 1763 ft | 120 kts | 90° |
| 2026-05-06 17:21 | 50.09164 | 19.80478 | 1674 ft | 126 kts | 85° |
| 2026-05-06 17:21 | 50.09326 | 19.81829 | 1595 ft | 128 kts | 85° |
| 2026-05-06 17:22 | 50.09420 | 19.83216 | 1510 ft | 129 kts | 89° |
| 2026-05-06 17:22 | 50.09486 | 19.84556 | 1578 ft | 120 kts | 88° |
| 2026-05-06 17:22 | 50.10015 | 19.84956 | 1836 ft | 104 kts | 308° |
| 2026-05-06 17:22 | 50.09798 | 19.84260 | 1808 ft | 101 kts | 172° |
| 2026-05-06 17:23 | 50.09673 | 19.85267 | 1705 ft | 126 kts | 46° |
| 2026-05-06 17:23 | 50.10392 | 19.85076 | 1801 ft | 115 kts | 290° |
| 2026-05-06 17:23 | 50.10107 | 19.84167 | 1799 ft | 103 kts | 192° |
| 2026-05-06 17:23 | 50.09605 | 19.84838 | 1574 ft | 132 kts | 89° |
| 2026-05-06 17:24 | 50.10276 | 19.85507 | 1658 ft | 126 kts | 335° |
| 2026-05-06 17:24 | 50.10400 | 19.84545 | 1765 ft | 97 kts | 206° |
| 2026-05-06 17:24 | 50.09753 | 19.84781 | 1819 ft | 96 kts | 157° |
| 2026-05-06 17:24 | 50.09148 | 19.84938 | 1833 ft | 78 kts | 195° |
| 2026-05-06 17:25 | 50.08679 | 19.84353 | 1558 ft | 100 kts | 244° |
| 2026-05-06 17:25 | 50.08450 | 19.83370 | 1384 ft | 94 kts | 249° |
| 2026-05-06 17:25 | 50.08325 | 19.82445 | 1246 ft | 83 kts | 258° |
| 2026-05-06 17:25 | 50.08239 | 19.81692 | 1089 ft | 65 kts | 255° |
| 2026-05-06 17:26 | 50.08121 | 19.80998 | 1005 ft | 70 kts | 252° |
| 2026-05-06 17:26 | 50.08017 | 19.80244 | 895 ft | 71 kts | 251° |
| 2026-05-06 17:26 | 50.07915 | 19.79521 | 808 ft | 62 kts | 256° |
| 2026-05-06 17:26 | 50.07830 | 19.78905 | 796 ft | 50 kts | 261° |
| 2026-05-06 17:27 | 50.07776 | 19.78522 | 796 ft | 26 kts | 261° |
| 2026-05-06 17:27 | 50.07742 | 19.78283 | 796 ft | 21 kts | 246° |
| 2026-05-06 17:27 | 50.07708 | 19.78119 | 796 ft | 10 kts | 226° |
| 2026-05-06 17:27 | 50.07653 | 19.78094 | 796 ft | 7 kts | 182° |
| 2026-05-06 17:28 | 50.07597 | 19.78091 | 796 ft | 7 kts | 184° |
| 2026-05-06 17:28 | 50.07542 | 19.78089 | 796 ft | 8 kts | 178° |
| 2026-05-06 17:28 | 50.07482 | 19.78103 | 796 ft | 7 kts | 136° |
| 2026-05-06 17:28 | 50.07479 | 19.78184 | 796 ft | 11 kts | 78° |
| 2026-05-06 17:29 | 50.07499 | 19.78338 | 796 ft | 15 kts | 77° |
| 2026-05-06 17:29 | 50.07524 | 19.78506 | 796 ft | 16 kts | 78° |
| 2026-05-06 17:29 | 50.07553 | 19.78693 | 796 ft | 18 kts | 71° |
| 2026-05-06 17:29 | 50.07577 | 19.78891 | 796 ft | 17 kts | 78° |
| 2026-05-06 17:30 | 50.07595 | 19.79033 | 796 ft | 10 kts | 80° |
| 2026-05-06 17:30 | 50.07609 | 19.79126 | 796 ft | 8 kts | 77° |
| 2026-05-06 17:30 | 50.07626 | 19.79240 | 796 ft | 13 kts | 79° |
| 2026-05-06 17:30 | 50.07645 | 19.79391 | 796 ft | 14 kts | 76° |
| 2026-05-06 17:31 | 50.07668 | 19.79556 | 796 ft | 13 kts | 78° |
| 2026-05-06 17:31 | 50.07685 | 19.79666 | 796 ft | 8 kts | 77° |
| 2026-05-06 17:31 | 50.07697 | 19.79751 | 796 ft | 7 kts | 77° |
| 2026-05-06 17:31 | 50.07705 | 19.79820 | 796 ft | 6 kts | 83° |
| 2026-05-06 17:32 | 50.07685 | 19.79874 | 796 ft | 6 kts | 160° |
| 2026-05-06 17:32 | 50.07649 | 19.79886 | 796 ft | 2 kts | 170° |
| 2026-05-06 17:32 | 50.07625 | 19.79897 | 796 ft | 5 kts | 163° |
| 2026-05-06 17:32 | 50.07611 | 19.79959 | 796 ft | 4 kts | 79° |
| 2026-05-06 17:33 | 50.07617 | 19.80017 | 796 ft | 9 kts | 78° |
| 2026-05-06 17:33 | 50.07625 | 19.80082 | 796 ft | 1 kts | 78° |
| 2026-05-06 17:33 | 50.07641 | 19.80095 | 796 ft | 2 kts | 336° |
| 2026-05-06 17:33 | 50.07670 | 19.80083 | 796 ft | 4 kts | 348° |
| 2026-05-06 17:34 | 50.07693 | 19.80075 | 796 ft | 0 kts | 348° |